Potomac, IL

12:37 PM CDT on April 19, 2015 (GMT -0500)
Univ Of Illinois-Willard | | Change Station
CLOSE
Current Station
Airport
Location: Champaign,
Elevation: 755 ft
Nearby Weather Stations

Elev 755 ft 40.04 °N, 88.28 °W | Updated 13 minutes ago

Rain
Rain
57 °F
Feels Like 57 °F
N
12
Wind Variable Wind from NE

Today
High -- | Low -- °F
--% Chance of Precip.
Yesterday
High -- | Low -- °F
Precip. -- in
6:07 AM 7:33 PM
New Moon, 1% visible
Pressure 29.62 in
Visibility 5.0 miles
Clouds Few 1300 ft
Scattered Clouds 2600 ft
Overcast 3600 ft
Dew Point 53 °F
Humidity 87%
Rainfall 0.07 in
Snow Depth Not available.
UV 3 out of 12
Pollen 6.30 out of 12
Air Quality Not available.
Flu Activity Regional
SPECI KCMI 191724Z 05010KT 5SM -RA BR FEW013 SCT026 OVC036 14/12 A2962 RMK AO2 P0002 T01390117

More Conditions Fewer Conditions

Pressure 29.62 in
Visibility 5.0 miles
Clouds Few 1300 ft
Scattered Clouds 2600 ft
Overcast 3600 ft
Dew Point 53 °F
Humidity 87%
Rainfall 0.07 in
Snow Depth Not available.
UV 3 out of 12
Pollen 6.30 out of 12
Air Quality Not available.
Flu Activity Regional
SPECI KCMI 191724Z 05010KT 5SM -RA BR FEW013 SCT026 OVC036 14/12 A2962 RMK AO2 P0002 T01390117

More Conditions Fewer Conditions

10-Day Weather Forecast

Almanac

Astronomy

Apr. 19, 2015 Rise Set
Actual Time
Civil Twilight
Nautical Twilight
Astronomical Twilight
Moon
Length of Visible Light
Length of Day
Tomorrow will be .
, % of the Moon is Illuminated

Today's Extremes

State Highs State Lows

Community

WunderPhotos

Upload Photos

1,814,873 photos uploaded!

WunderBlogs® & News

Nearby

Air Quality

  Air Quality AQ Index Pollutant
Not available.

Snow Depth

Station Depth Elevation

Earthquake Activity

City Distance Mag. Time & Date
Minimum magnitude displayed is 2.5.

Coastal Water Temperatures

Place Temperature

Stations

Nearby Weather Stations

Station Location Temp. Windchill Dew Point Humidity Wind Precip. Elev Updated Type